Time;durP1;ratioP1;P1;durP2;ratioP2;P2;SDS_P1;SDS_P2;PMS_P1;PMS_P2;Temp;Humidity;BMP_temperature;BMP_pressure;BME280_temperature;BME280_humidity;BME280_pressure;Samples;Min_cycle;Max_cycle;Signal;HPM_P1;HPM_P2
2022/06/15 00:01:03;;;;;;;8.08;6.17;;;22.90;78.20;;;;;;1861216;77;21054;-64
2022/06/15 00:03:36;;;;;;;8.50;6.35;;;22.90;78.20;;;;;;1861161;77;21074;-64
2022/06/15 00:06:08;;;;;;;7.17;5.87;;;23.00;78.30;;;;;;1861181;77;21074;-64
2022/06/15 00:08:38;;;;;;;9.20;6.60;;;23.00;78.20;;;;;;1861272;77;21094;-64
2022/06/15 00:11:13;;;;;;;8.68;6.10;;;23.10;78.10;;;;;;1861295;77;21148;-64
2022/06/15 00:13:42;;;;;;;8.70;6.92;;;23.10;78.10;;;;;;1861046;77;21046;-64
2022/06/15 00:16:12;;;;;;;8.75;6.15;;;23.10;78.00;;;;;;1861287;77;21042;-64
2022/06/15 00:18:44;;;;;;;10.35;7.75;;;23.20;77.90;;;;;;1861259;77;21026;-64
2022/06/15 00:21:13;;;;;;;9.63;6.22;;;23.20;77.80;;;;;;1861344;77;21051;-64
2022/06/15 00:23:43;;;;;;;20.45;9.88;;;23.20;78.20;;;;;;1861350;77;21050;-64
2022/06/15 00:26:14;;;;;;;18.90;11.50;;;23.20;77.80;;;;;;1861359;77;21093;-64
2022/06/15 00:28:43;;;;;;;16.95;9.70;;;23.20;77.90;;;;;;1861392;77;21075;-64
2022/06/15 00:31:13;;;;;;;17.52;10.43;;;23.20;78.00;;;;;;1861442;77;21144;-65
2022/06/15 00:33:43;;;;;;;16.07;9.73;;;23.10;78.00;;;;;;1861352;77;21125;-64
2022/06/15 00:36:18;;;;;;;15.10;7.78;;;23.10;78.20;;;;;;1861403;77;21184;-64
2022/06/15 00:38:50;;;;;;;9.90;7.42;;;23.10;78.30;;;;;;1861274;77;21187;-64
2022/06/15 00:41:22;;;;;;;12.13;8.98;;;23.00;78.30;;;;;;1861359;77;21492;-64
2022/06/15 00:43:54;;;;;;;11.68;8.28;;;22.90;78.40;;;;;;1861269;77;21108;-64
2022/06/15 00:46:38;;;;;;;9.20;7.62;;;22.80;78.70;;;;;;1861443;77;21051;-65
2022/06/15 00:49:32;;;;;;;11.03;8.08;;;22.70;78.80;;;;;;1861474;77;21073;-64
2022/06/15 00:52:04;;;;;;;9.83;8.13;;;22.60;79.20;;;;;;1858382;77;21134;-64
2022/06/15 00:54:34;;;;;;;11.22;7.28;;;22.60;79.30;;;;;;1852469;77;21131;-65
2022/06/15 00:57:04;;;;;;;10.38;7.47;;;22.50;79.40;;;;;;1852444;77;21090;-64
2022/06/15 00:59:42;;;;;;;9.75;6.37;;;22.50;79.60;;;;;;1852338;77;21031;-64
2022/06/15 01:02:12;;;;;;;9.85;8.00;;;22.50;79.60;;;;;;1852351;77;21169;-65
2022/06/15 01:04:46;;;;;;;10.18;6.78;;;22.60;79.80;;;;;;1852326;77;20987;-64
2022/06/15 01:07:41;;;;;;;15.08;8.28;;;22.60;79.60;;;;;;1852057;76;21039;-65
2022/06/15 01:10:28;;;;;;;13.83;8.15;;;22.60;79.70;;;;;;1842203;77;21098;-64
2022/06/15 01:13:21;;;;;;;11.03;8.58;;;22.50;79.80;;;;;;1851324;77;21529;-65
2022/06/15 01:15:55;;;;;;;11.63;7.97;;;22.50;80.00;;;;;;1851576;77;21015;-65
2022/06/15 01:18:43;;;;;;;14.70;9.60;;;22.40;80.10;;;;;;1849360;76;21035;-65
2022/06/15 01:21:38;;;;;;;12.55;8.90;;;22.40;80.40;;;;;;1847789;76;21093;-65
2022/06/15 01:24:43;;;;;;;14.00;9.30;;;22.40;80.30;;;;;;1852576;77;21082;-65
2022/06/15 01:27:35;;;;;;;12.85;9.65;;;22.40;80.50;;;;;;1852515;77;21028;-65
2022/06/15 01:30:16;;;;;;;14.85;9.93;;;22.40;80.40;;;;;;1852431;77;21007;-65
2022/06/15 01:32:57;;;;;;;11.95;8.83;;;22.40;80.60;;;;;;1852345;77;21056;-65
2022/06/15 01:35:44;;;;;;;11.85;9.48;;;22.40;80.50;;;;;;1851576;77;21047;-64
2022/06/15 01:38:28;;;;;;;17.75;10.03;;;22.40;80.60;;;;;;1852526;77;21474;-65
2022/06/15 01:41:03;;;;;;;14.28;9.63;;;22.40;80.60;;;;;;1852363;77;21571;-65
2022/06/15 01:43:35;;;;;;;12.55;9.53;;;22.40;80.60;;;;;;1852384;77;21423;-64
2022/06/15 01:46:06;;;;;;;12.10;8.40;;;22.40;80.60;;;;;;1852357;77;21446;-64
2022/06/15 01:48:38;;;;;;;15.90;8.65;;;22.40;80.80;;;;;;1852438;77;20988;-64
2022/06/15 01:51:12;;;;;;;11.55;7.90;;;22.40;81.00;;;;;;1852374;77;21016;-65
2022/06/15 01:53:42;;;;;;;;;;;22.40;81.00;;;;;;1862452;77;21598;-65
2022/06/15 01:56:26;;;;;;;13.53;7.95;;;22.40;80.90;;;;;;1861389;77;20143;-65
2022/06/15 01:59:14;;;;;;;13.83;8.70;;;22.50;80.70;;;;;;1861258;77;21066;-65
2022/06/15 02:02:01;;;;;;;10.82;8.63;;;22.60;80.60;;;;;;1861432;77;21126;-64
2022/06/15 02:04:36;;;;;;;11.63;8.18;;;22.60;80.60;;;;;;1861283;77;21074;-65
2022/06/15 02:07:14;;;;;;;11.53;7.75;;;22.60;81.10;;;;;;1859681;75;21075;-65
2022/06/15 02:09:59;;;;;;;10.93;7.00;;;22.50;80.60;;;;;;1860836;76;21070;-65
2022/06/15 02:12:37;;;;;;;10.07;8.03;;;22.50;80.80;;;;;;1861512;77;21113;-65
2022/06/15 02:15:09;;;;;;;9.73;6.83;;;22.50;80.80;;;;;;1859596;77;21173;-65
2022/06/15 02:17:41;;;;;;;15.00;8.23;;;22.50;80.80;;;;;;1861364;77;21106;-65
2022/06/15 02:20:19;;;;;;;12.85;8.65;;;22.50;80.90;;;;;;1861080;77;21046;-65
2022/06/15 02:22:51;;;;;;;16.77;7.85;;;22.50;81.10;;;;;;1860583;76;21184;-65
2022/06/15 02:25:23;;;;;;;10.65;8.73;;;22.50;81.00;;;;;;1861258;77;21047;-65
2022/06/15 02:27:54;;;;;;;14.58;7.80;;;22.50;81.10;;;;;;1861124;77;21570;-65
2022/06/15 02:30:26;;;;;;;14.43;8.83;;;22.50;81.00;;;;;;1861357;77;21113;-65
2022/06/15 02:32:57;;;;;;;10.08;7.22;;;22.60;81.10;;;;;;1860542;76;21152;-65
2022/06/15 02:35:27;;;;;;;12.58;9.03;;;22.60;81.10;;;;;;1861270;77;21079;-64
2022/06/15 02:37:56;;;;;;;13.58;9.05;;;22.60;81.10;;;;;;1861305;77;21062;-64
2022/06/15 02:40:27;;;;;;;15.93;9.23;;;22.60;81.00;;;;;;1861345;77;21043;-64
2022/06/15 02:42:58;;;;;;;14.93;9.10;;;22.60;81.00;;;;;;1861250;77;21050;-64
2022/06/15 02:45:36;;;;;;;11.25;8.08;;;22.60;81.10;;;;;;1861245;77;21039;-64
2022/06/15 02:48:07;;;;;;;14.30;8.98;;;22.60;81.20;;;;;;1861222;77;21039;-64
2022/06/15 02:50:42;;;;;;;12.80;9.03;;;22.60;81.30;;;;;;1861324;77;21043;-64
2022/06/15 02:53:12;;;;;;;;;;;22.60;81.20;;;;;;1863368;75;21600;-64
2022/06/15 02:55:43;;;;;;;16.10;10.43;;;22.70;81.40;;;;;;1861209;77;20131;-64
2022/06/15 02:58:24;;;;;;;12.68;9.38;;;22.70;80.90;;;;;;1861184;77;21113;-64
2022/06/15 03:00:54;;;;;;;12.85;9.23;;;22.70;80.80;;;;;;1861170;77;21192;-64
2022/06/15 03:03:26;;;;;;;12.55;10.08;;;22.70;81.00;;;;;;1861049;77;21046;-64
2022/06/15 03:05:57;;;;;;;20.90;13.75;;;22.70;81.20;;;;;;1859377;77;21528;-64
2022/06/15 03:08:26;;;;;;;14.55;9.50;;;22.70;81.20;;;;;;1861254;77;21108;-64
2022/06/15 03:10:58;;;;;;;18.75;10.13;;;22.70;81.20;;;;;;1860412;76;21049;-64
2022/06/15 03:13:27;;;;;;;15.90;9.58;;;22.80;81.10;;;;;;1861170;77;21178;-64
2022/06/15 03:15:59;;;;;;;14.93;9.45;;;22.80;81.00;;;;;;1827923;77;21054;-64
2022/06/15 03:18:29;;;;;;;18.20;11.40;;;22.90;81.00;;;;;;1861200;77;21082;-64
2022/06/15 03:21:01;;;;;;;15.20;9.85;;;22.90;80.90;;;;;;1860991;77;21045;-64
2022/06/15 03:23:31;;;;;;;18.15;11.38;;;22.90;81.00;;;;;;1861149;77;21046;-64
2022/06/15 03:26:03;;;;;;;12.40;10.08;;;23.00;81.00;;;;;;1861263;77;21149;-64
2022/06/15 03:28:37;;;;;;;77.32;17.30;;;23.00;80.80;;;;;;1860723;76;21069;-64
2022/06/15 03:31:08;;;;;;;18.48;10.43;;;23.00;80.70;;;;;;1861231;77;21099;-64
2022/06/15 03:33:37;;;;;;;23.25;10.53;;;23.00;80.60;;;;;;1861269;77;21117;-64
2022/06/15 03:36:08;;;;;;;25.32;14.30;;;23.10;80.60;;;;;;1860689;77;21077;-64
2022/06/15 03:38:38;;;;;;;25.88;15.03;;;23.10;80.60;;;;;;1827718;77;21047;-64
2022/06/15 03:41:20;;;;;;;22.30;14.18;;;23.10;80.50;;;;;;1860699;76;21132;-64
2022/06/15 03:43:50;;;;;;;23.98;14.70;;;23.00;80.50;;;;;;1861187;77;21117;-64
2022/06/15 03:46:23;;;;;;;21.60;12.80;;;23.00;80.70;;;;;;1860956;76;21139;-64
2022/06/15 03:48:53;;;;;;;26.97;14.05;;;23.00;80.70;;;;;;1861262;77;21038;-64
2022/06/15 03:51:23;;;;;;;21.15;11.97;;;23.00;80.90;;;;;;1861229;77;21112;-64
2022/06/15 03:54:00;;;;;;;26.45;14.63;;;22.90;80.90;;;;;;1860430;75;21114;-64
2022/06/15 03:56:47;;;;;;;20.40;12.47;;;22.90;81.20;;;;;;1861272;77;21050;-65
2022/06/15 03:59:18;;;;;;;19.50;12.00;;;22.80;81.10;;;;;;1860507;77;21592;-65
2022/06/15 04:01:54;;;;;;;18.90;12.23;;;22.90;81.20;;;;;;1861131;77;21598;-65
2022/06/15 04:04:42;;;;;;;17.77;12.23;;;22.90;81.20;;;;;;1862654;77;21122;-65
2022/06/15 04:10:00;;;;;;;24.25;14.58;;;23.10;80.90;;;;;;1862672;77;21078;-65
2022/06/15 04:15:40;;;;;;;25.12;13.40;;;23.20;81.30;;;;;;1927911;74;21533;-64
2022/06/15 04:18:11;;;;;;;22.95;14.03;;;23.30;80.50;;;;;;1927922;74;21030;-64
2022/06/15 04:20:42;;;;;;;22.98;14.13;;;23.30;80.30;;;;;;1926566;73;21123;-64
2022/06/15 04:23:15;;;;;;;24.75;15.05;;;23.30;80.10;;;;;;1925953;74;21033;-64
2022/06/15 04:25:51;;;;;;;19.65;14.03;;;23.30;80.00;;;;;;1927874;74;21117;-64
2022/06/15 04:28:22;;;;;;;20.57;12.07;;;23.40;80.00;;;;;;1927713;74;21489;-64
2022/06/15 04:30:52;;;;;;;26.20;14.05;;;23.40;80.00;;;;;;1927894;74;21034;-64
2022/06/15 04:33:24;;;;;;;23.25;14.53;;;23.50;79.90;;;;;;1927509;73;21147;-64
2022/06/15 04:35:55;;;;;;;23.02;13.90;;;23.50;79.70;;;;;;1927853;74;21405;-64
2022/06/15 04:38:25;;;;;;;23.52;13.75;;;23.50;79.70;;;;;;1927902;74;21107;-64
2022/06/15 04:40:56;;;;;;;19.50;13.43;;;23.50;79.70;;;;;;1927087;74;21038;-64
2022/06/15 04:43:26;;;;;;;22.82;13.18;;;23.50;79.60;;;;;;1927749;74;21038;-64
2022/06/15 04:45:55;;;;;;;22.87;13.90;;;23.50;79.60;;;;;;1927881;74;21034;-63
2022/06/15 04:48:26;;;;;;;22.20;13.00;;;23.60;79.50;;;;;;1927923;74;21003;-63
2022/06/15 04:50:57;;;;;;;27.50;17.32;;;23.60;79.50;;;;;;1927632;73;21033;-63
2022/06/15 04:53:28;;;;;;;26.15;16.10;;;23.70;79.40;;;;;;1927141;74;21108;-65
2022/06/15 04:55:57;;;;;;;26.62;15.65;;;23.70;79.20;;;;;;1927799;74;21113;-65
2022/06/15 04:58:27;;;;;;;24.80;16.02;;;23.80;79.10;;;;;;1927841;74;21014;-65
2022/06/15 05:00:58;;;;;;;26.25;15.95;;;23.90;79.00;;;;;;1927180;74;21010;-65
2022/06/15 05:03:28;;;;;;;27.05;15.98;;;24.00;78.60;;;;;;1927784;74;21027;-65
2022/06/15 05:05:58;;;;;;;26.23;15.35;;;24.20;78.30;;;;;;1927736;74;21027;-65
2022/06/15 05:08:39;;;;;;;23.65;14.05;;;24.20;78.10;;;;;;1927767;74;21043;-65
2022/06/15 05:11:18;;;;;;;22.05;14.70;;;24.20;77.90;;;;;;1908547;73;21139;-65
2022/06/15 05:13:47;;;;;;;27.25;16.25;;;24.30;78.30;;;;;;1909888;75;21026;-64
2022/06/15 05:16:18;;;;;;;36.38;19.77;;;24.40;77.90;;;;;;1909898;75;21049;-64
2022/06/15 05:18:49;;;;;;;41.35;21.15;;;24.40;77.70;;;;;;1909081;75;21075;-64
2022/06/15 05:21:20;;;;;;;47.13;23.05;;;24.40;77.70;;;;;;1909473;75;21151;-64
2022/06/15 05:23:49;;;;;;;39.80;19.70;;;24.30;77.70;;;;;;1909847;74;21108;-64
2022/06/15 05:26:24;;;;;;;31.00;18.02;;;24.20;78.20;;;;;;1908384;75;21132;-64
2022/06/15 05:31:48;;;;;;;39.78;19.40;;;24.10;78.70;;;;;;1816840;79;21188;-64
2022/06/15 05:34:18;;;;;;;31.65;18.80;;;24.00;78.60;;;;;;1816646;78;21048;-63
2022/06/15 05:36:47;;;;;;;31.45;17.73;;;24.00;78.80;;;;;;1816695;79;21047;-64
2022/06/15 05:39:17;;;;;;;27.35;16.67;;;24.00;78.90;;;;;;1816750;77;21031;-64
2022/06/15 05:41:49;;;;;;;25.20;16.17;;;24.10;79.00;;;;;;1816722;79;21153;-64
2022/06/15 05:46:49;;;;;;;26.57;16.87;;;24.30;79.00;;;;;;1816832;79;21047;-63
2022/06/15 05:49:27;;;;;;;30.65;16.97;;;24.60;78.70;;;;;;1816599;78;21118;-63
2022/06/15 05:51:56;;;;;;;22.65;13.93;;;24.90;77.60;;;;;;1816692;79;21048;-63
2022/06/15 05:54:27;;;;;;;26.30;14.13;;;25.10;76.80;;;;;;1816679;79;21145;-63
2022/06/15 05:56:56;;;;;;;23.57;14.93;;;25.10;76.50;;;;;;1816634;77;21119;-63
2022/06/15 05:59:26;;;;;;;31.65;16.10;;;25.10;76.20;;;;;;1816714;77;21169;-63
2022/06/15 06:01:55;;;;;;;19.95;14.03;;;25.20;76.10;;;;;;1816686;77;21086;-63
2022/06/15 06:04:24;;;;;;;31.07;16.65;;;25.10;76.00;;;;;;1816616;78;21114;-63
2022/06/15 06:06:54;;;;;;;32.48;17.67;;;25.10;76.20;;;;;;1816644;79;21051;-63
2022/06/15 06:09:24;;;;;;;25.52;15.25;;;25.00;76.20;;;;;;1816705;78;21052;-63
2022/06/15 06:11:52;;;;;;;27.77;17.30;;;25.10;76.40;;;;;;1816706;78;21047;-62
2022/06/15 06:14:22;;;;;;;24.25;14.87;;;25.30;76.20;;;;;;1816754;79;21063;-62
2022/06/15 06:16:51;;;;;;;29.40;16.75;;;25.40;75.70;;;;;;1816646;77;21113;-62
2022/06/15 06:19:21;;;;;;;23.83;14.95;;;25.40;75.80;;;;;;1816672;79;21101;-62
2022/06/15 06:21:50;;;;;;;24.32;14.65;;;25.40;75.10;;;;;;1816668;79;21036;-63
2022/06/15 06:24:20;;;;;;;22.67;14.65;;;25.50;75.10;;;;;;1816752;78;21048;-62
2022/06/15 06:26:49;;;;;;;19.95;13.43;;;25.40;75.00;;;;;;1816649;79;21024;-62
2022/06/15 06:29:19;;;;;;;23.38;14.50;;;25.40;75.00;;;;;;1816618;79;21051;-62
2022/06/15 06:31:48;;;;;;;20.95;13.25;;;25.40;75.00;;;;;;1816706;78;21051;-62
2022/06/15 06:34:17;;;;;;;18.25;12.78;;;25.30;74.90;;;;;;1816721;78;21059;-62
2022/06/15 06:36:47;;;;;;;19.05;11.18;;;25.40;75.30;;;;;;1816688;79;21149;-62
2022/06/15 06:39:22;;;;;;;16.82;9.45;;;25.50;75.00;;;;;;1816680;79;21129;-62
2022/06/15 06:41:51;;;;;;;16.57;10.78;;;25.80;74.50;;;;;;1816837;78;21080;-62
2022/06/15 06:44:21;;;;;;;19.30;11.55;;;26.00;73.80;;;;;;1816790;79;21044;-62
2022/06/15 06:46:51;;;;;;;17.48;10.63;;;26.20;73.10;;;;;;1816750;79;21055;-62
2022/06/15 06:49:22;;;;;;;11.75;9.10;;;26.40;72.70;;;;;;1816726;79;21036;-62
2022/06/15 06:51:52;;;;;;;15.20;8.73;;;26.50;72.30;;;;;;1816847;78;21106;-63
2022/06/15 06:54:23;;;;;;;13.15;8.90;;;26.70;71.60;;;;;;1816666;78;21051;-62
2022/06/15 06:56:53;;;;;;;11.90;8.03;;;26.80;70.40;;;;;;1816616;78;21051;-63
2022/06/15 06:59:23;;;;;;;13.03;8.00;;;26.90;69.90;;;;;;1816911;79;21089;-63
2022/06/15 07:01:52;;;;;;;13.32;8.43;;;27.00;69.50;;;;;;1816662;79;21121;-63
2022/06/15 07:04:22;;;;;;;12.05;8.05;;;27.20;69.50;;;;;;1816804;78;21117;-63
2022/06/15 07:06:51;;;;;;;14.05;9.23;;;27.30;68.90;;;;;;1816610;79;21051;-63
2022/06/15 07:09:20;;;;;;;12.93;8.60;;;27.40;68.80;;;;;;1816768;78;21055;-63
2022/06/15 07:11:49;;;;;;;14.15;8.45;;;27.40;68.50;;;;;;1816685;78;21047;-64
2022/06/15 07:14:19;;;;;;;19.80;8.45;;;27.40;67.90;;;;;;1816855;79;21056;-63
2022/06/15 07:16:49;;;;;;;13.75;8.35;;;27.30;68.20;;;;;;1816982;79;21043;-63
2022/06/15 07:19:18;;;;;;;18.75;10.38;;;27.20;68.40;;;;;;1816756;79;21075;-64
2022/06/15 07:21:48;;;;;;;14.63;8.95;;;27.20;68.80;;;;;;1816690;78;21051;-63
2022/06/15 07:24:17;;;;;;;14.20;10.05;;;27.10;68.80;;;;;;1816696;78;21094;-63
2022/06/15 07:26:47;;;;;;;9.80;8.10;;;27.10;68.70;;;;;;1816700;79;21169;-64
2022/06/15 07:29:19;;;;;;;11.38;8.05;;;27.20;68.70;;;;;;1816762;79;21176;-64
2022/06/15 07:31:51;;;;;;;11.63;7.87;;;27.30;68.40;;;;;;1823205;78;21075;-64
2022/06/15 07:34:20;;;;;;;13.70;7.80;;;27.40;67.90;;;;;;1860155;75;21101;-63
2022/06/15 07:36:50;;;;;;;10.82;8.05;;;27.50;67.50;;;;;;1860038;75;21039;-64
2022/06/15 07:39:22;;;;;;;12.70;8.20;;;27.60;67.60;;;;;;1860031;75;21035;-64
2022/06/15 07:41:52;;;;;;;11.85;6.78;;;27.60;66.80;;;;;;1860010;77;21067;-64
2022/06/15 07:44:27;;;;;;;10.43;7.10;;;27.80;66.80;;;;;;1860008;75;21043;-64
2022/06/15 07:49:55;;;;;;;14.40;6.35;;;28.00;64.90;;;;;;1912153;75;21171;-64
2022/06/15 07:52:30;;;;;;;12.30;6.28;;;28.10;65.00;;;;;;1912178;74;21047;-64
2022/06/15 07:55:00;;;;;;;10.58;6.20;;;28.20;64.80;;;;;;1912172;74;21038;-64
2022/06/15 07:57:29;;;;;;;16.90;7.80;;;28.20;64.50;;;;;;1912209;75;21463;-64
2022/06/15 07:59:59;;;;;;;12.53;8.98;;;28.40;64.20;;;;;;1912111;74;21029;-64
2022/06/15 08:02:28;;;;;;;18.25;8.33;;;28.50;64.20;;;;;;1912281;75;21031;-65
2022/06/15 08:04:57;;;;;;;12.03;7.72;;;28.40;64.30;;;;;;1912111;75;21035;-64
2022/06/15 08:07:27;;;;;;;10.70;7.10;;;28.40;64.10;;;;;;1912182;74;21454;-65
2022/06/15 08:09:56;;;;;;;11.33;6.28;;;28.50;64.20;;;;;;1912216;74;21036;-65
2022/06/15 08:12:27;;;;;;;12.60;7.30;;;28.60;63.60;;;;;;1912192;74;21067;-65
2022/06/15 08:14:59;;;;;;;10.18;6.62;;;28.70;63.20;;;;;;1912232;75;21117;-65
2022/06/15 08:17:34;;;;;;;11.25;7.37;;;28.70;62.90;;;;;;1912289;74;21549;-65
2022/06/15 08:20:12;;;;;;;14.65;8.28;;;28.70;62.90;;;;;;1890141;75;21090;-64
2022/06/15 08:22:44;;;;;;;10.88;7.90;;;28.60;63.60;;;;;;1911817;74;21502;-64
2022/06/15 08:25:22;;;;;;;11.45;8.18;;;28.60;63.50;;;;;;1912180;75;21031;-64
2022/06/15 08:27:52;;;;;;;8.90;5.40;;;28.70;63.60;;;;;;1912179;74;21097;-64
2022/06/15 08:30:22;;;;;;;9.15;5.50;;;28.70;62.60;;;;;;1912307;74;21035;-65
2022/06/15 08:32:51;;;;;;;12.33;5.33;;;28.70;62.40;;;;;;1912165;74;21032;-65
2022/06/15 08:35:21;;;;;;;156.78;22.45;;;28.80;62.20;;;;;;1912204;75;21128;-64
2022/06/15 08:37:50;;;;;;;8.38;4.97;;;28.90;61.80;;;;;;1912034;74;21093;-64
2022/06/15 08:40:20;;;;;;;9.00;5.10;;;29.10;61.30;;;;;;1912248;75;21031;-64
2022/06/15 08:42:58;;;;;;;8.23;4.50;;;29.20;60.60;;;;;;1912134;74;21004;-64
2022/06/15 08:45:51;;;;;;;5.00;4.25;;;29.20;60.00;;;;;;1914051;71;21032;-62
2022/06/15 08:48:38;;;;;;;10.48;4.80;;;29.20;60.10;;;;;;1928455;74;21089;-69
2022/06/15 08:51:10;;;;;;;6.62;4.42;;;29.20;60.10;;;;;;1919112;73;21078;-65
2022/06/15 08:53:43;;;;;;;6.42;4.65;;;29.30;59.70;;;;;;1929396;74;21348;-64
2022/06/15 08:56:18;;;;;;;6.78;5.55;;;29.50;58.90;;;;;;1929155;73;21015;-67
2022/06/15 08:58:57;;;;;;;7.42;5.20;;;29.50;58.50;;;;;;1929438;73;21024;-69
2022/06/15 09:01:49;;;;;;;8.48;5.25;;;29.50;58.30;;;;;;1928409;74;21003;-62
2022/06/15 09:04:49;;;;;;;7.45;5.30;;;29.50;58.30;;;;;;1928430;73;21523;-66
2022/06/15 09:07:29;;;;;;;12.07;5.90;;;29.50;58.20;;;;;;1928902;74;21183;-66
2022/06/15 09:10:34;;;;;;;6.55;5.87;;;29.60;58.30;;;;;;1927791;73;21029;-67
2022/06/15 09:13:11;;;;;;;7.75;5.28;;;29.80;58.30;;;;;;1905904;74;21102;-65
2022/06/15 09:15:46;;;;;;;8.63;6.00;;;29.70;58.20;;;;;;1928966;74;21535;-65
2022/06/15 09:18:33;;;;;;;8.93;6.25;;;29.70;58.50;;;;;;1900218;74;21027;-65
2022/06/15 09:21:08;;;;;;;10.40;6.97;;;29.60;58.60;;;;;;1897863;74;21098;-63
2022/06/15 09:23:46;;;;;;;11.10;6.03;;;29.50;59.00;;;;;;1929095;73;21050;-66
2022/06/15 09:26:22;;;;;;;9.78;6.70;;;29.40;59.00;;;;;;1929161;73;21109;-61
2022/06/15 09:28:54;;;;;;;8.25;6.12;;;29.30;59.00;;;;;;1921589;73;21125;-62
2022/06/15 09:31:38;;;;;;;17.48;11.03;;;29.30;58.70;;;;;;1924260;74;21018;-62
2022/06/15 09:34:11;;;;;;;8.08;6.70;;;29.40;58.40;;;;;;1924769;74;21103;-66
2022/06/15 09:36:52;;;;;;;9.28;6.65;;;29.60;58.20;;;;;;1924728;74;21402;-61
2022/06/15 09:39:22;;;;;;;17.80;7.42;;;29.70;58.40;;;;;;1924723;74;21597;-63
2022/06/15 09:42:06;;;;;;;10.40;7.03;;;29.70;58.30;;;;;;1924789;74;21107;-61
2022/06/15 09:44:54;;;;;;;7.45;6.08;;;29.60;58.50;;;;;;1924193;73;21018;-62
2022/06/15 09:47:41;;;;;;;10.20;5.78;;;29.60;58.50;;;;;;1952550;73;21041;-63
2022/06/15 09:50:30;;;;;;;13.45;5.92;;;29.50;58.10;;;;;;1963585;73;21057;-62
2022/06/15 09:53:18;;;;;;;7.28;5.40;;;29.50;58.00;;;;;;1963672;73;21127;-62
2022/06/15 09:55:55;;;;;;;7.00;4.85;;;29.50;57.60;;;;;;1964114;73;21093;-63
2022/06/15 09:58:26;;;;;;;7.17;5.45;;;29.60;57.80;;;;;;1964078;73;21464;-63
2022/06/15 10:03:52;;;;;;;10.78;6.95;;;29.40;58.20;;;;;;1863948;76;21510;-61
2022/06/15 10:06:34;;;;;;;6.92;5.37;;;29.10;58.50;;;;;;1863705;76;21100;-62
2022/06/15 10:09:06;;;;;;;4.70;4.30;;;28.90;59.00;;;;;;1863128;76;21115;-61
2022/06/15 10:11:46;;;;;;;7.30;4.47;;;28.80;59.80;;;;;;1863770;76;21503;-64
2022/06/15 10:14:24;;;;;;;4.95;4.10;;;28.70;60.10;;;;;;1832683;77;21158;-61
2022/06/15 10:17:05;;;;;;;7.20;4.50;;;28.60;60.40;;;;;;1832522;77;21133;-62
2022/06/15 10:19:37;;;;;;;8.00;4.53;;;28.60;60.50;;;;;;1832633;77;21104;-61
2022/06/15 10:22:10;;;;;;;10.85;7.50;;;28.60;60.80;;;;;;1832612;77;21024;-62
2022/06/15 10:24:42;;;;;;;9.08;4.90;;;28.70;61.30;;;;;;1830537;78;21073;-61
2022/06/15 10:27:23;;;;;;;7.55;4.55;;;28.70;61.30;;;;;;1832522;78;21041;-65
2022/06/15 10:30:04;;;;;;;6.65;4.80;;;28.70;61.20;;;;;;1831570;77;21081;-58
2022/06/15 10:32:35;;;;;;;15.00;5.25;;;28.70;61.40;;;;;;1832612;78;21057;-59
2022/06/15 10:35:10;;;;;;;10.05;4.17;;;28.80;61.40;;;;;;1832726;77;21024;-65
2022/06/15 10:37:57;;;;;;;6.42;3.98;;;29.00;61.40;;;;;;1832625;77;21045;-64
2022/06/15 10:40:35;;;;;;;6.25;4.03;;;29.00;60.70;;;;;;1832545;77;21467;-63
2022/06/15 10:43:09;;;;;;;7.97;3.60;;;29.00;60.60;;;;;;1832484;77;21068;-63
2022/06/15 10:45:44;;;;;;;3.40;3.00;;;29.00;60.50;;;;;;1831380;77;21185;-58
2022/06/15 10:48:18;;;;;;;7.30;5.50;;;28.90;61.20;;;;;;1829832;77;21630;-61
2022/06/15 10:51:05;;;;;;;6.85;4.28;;;28.90;60.90;;;;;;1832642;77;21593;-59
2022/06/15 10:53:49;;;;;;;7.92;3.30;;;28.70;60.70;;;;;;1832705;77;21072;-61
2022/06/15 11:02:37;;;;;;;5.50;3.08;;;28.30;60.80;;;;;;1834232;76;21124;-61
2022/06/15 11:05:08;;;;;;;12.10;3.98;;;28.10;60.50;;;;;;1843486;77;21160;-61
2022/06/15 11:08:01;;;;;;;3.67;2.62;;;27.90;60.70;;;;;;1843152;78;21116;-58
2022/06/15 11:10:33;;;;;;;7.53;3.25;;;27.80;60.90;;;;;;1843351;77;21100;-59
2022/06/15 11:13:05;;;;;;;4.53;2.92;;;27.70;60.90;;;;;;1843424;77;21085;-63
2022/06/15 11:18:44;;;;;;;11.00;4.20;;;27.60;61.20;;;;;;1843449;78;21026;-58
2022/06/15 11:21:22;;;;;;;11.03;5.00;;;27.60;61.30;;;;;;1840170;77;21073;-60
2022/06/15 11:23:54;;;;;;;11.57;3.83;;;27.60;61.30;;;;;;1843477;77;21522;-58
2022/06/15 11:26:53;;;;;;;8.15;3.05;;;27.50;61.30;;;;;;1843522;77;21515;-60
2022/06/15 11:29:28;;;;;;;16.62;3.90;;;27.40;61.50;;;;;;1843241;78;21080;-61
2022/06/15 11:32:00;;;;;;;17.27;5.83;;;27.10;62.70;;;;;;1843360;77;21054;-59
2022/06/15 11:34:32;;;;;;;9.40;5.10;;;26.70;66.90;;;;;;1843393;77;21111;-61
2022/06/15 11:37:16;;;;;;;10.00;5.95;;;26.00;70.20;;;;;;1843336;77;21623;-62
2022/06/15 11:39:55;;;;;;;12.33;4.72;;;25.40;71.30;;;;;;1843599;78;21099;-61
2022/06/15 11:42:25;;;;;;;12.82;6.00;;;24.90;72.30;;;;;;1843243;78;21089;-59
2022/06/15 11:44:54;;;;;;;5.03;2.50;;;24.60;73.50;;;;;;1843377;78;21041;-61
2022/06/15 11:47:29;;;;;;;7.60;2.10;;;24.30;73.10;;;;;;1843489;78;21096;-60
2022/06/15 11:50:07;;;;;;;4.95;2.30;;;24.10;73.00;;;;;;1842090;77;21108;-61
2022/06/15 11:52:41;;;;;;;4.00;1.90;;;23.80;73.70;;;;;;1843535;78;21061;-60
2022/06/15 11:55:22;;;;;;;6.10;2.87;;;23.30;74.70;;;;;;1843153;78;21409;-61
2022/06/15 11:58:12;;;;;;;6.83;3.60;;;22.70;75.50;;;;;;1842905;77;21211;-60
2022/06/15 12:01:11;;;;;;;8.00;3.67;;;22.40;76.50;;;;;;1738679;78;21543;-60
2022/06/15 12:03:47;;;;;;;7.33;2.60;;;22.10;79.20;;;;;;1836297;76;21319;-60
2022/06/15 12:06:35;;;;;;;4.90;2.42;;;21.90;79.90;;;;;;1831165;78;22557;-59
2022/06/15 12:09:13;;;;;;;7.85;2.50;;;21.60;81.40;;;;;;1830946;77;21552;-59
2022/06/15 12:14:50;;;;;;;4.17;1.72;;;21.10;82.50;;;;;;1831934;77;21371;-62
2022/06/15 12:17:41;;;;;;;3.92;1.82;;;21.00;83.10;;;;;;1831223;77;21269;-61
2022/06/15 12:20:38;;;;;;;4.40;2.60;;;21.00;83.00;;;;;;1831821;78;21121;-62
2022/06/15 12:23:16;;;;;;;9.03;6.40;;;21.10;82.20;;;;;;1831874;78;21050;-62
2022/06/15 12:25:48;;;;;;;8.53;4.65;;;21.30;82.30;;;;;;1830582;78;21042;-61
2022/06/15 12:28:40;;;;;;;4.45;2.85;;;21.40;82.00;;;;;;1831369;77;21117;-61
2022/06/15 12:31:45;;;;;;;4.00;3.20;;;21.50;81.70;;;;;;1831879;77;21485;-60
2022/06/15 12:34:17;;;;;;;4.83;2.90;;;21.70;81.60;;;;;;1831912;78;21070;-62
2022/06/15 12:36:55;;;;;;;5.28;4.20;;;21.90;81.50;;;;;;1832037;78;21629;-63
2022/06/15 12:39:30;;;;;;;5.15;3.60;;;22.00;81.80;;;;;;1831908;78;21082;-62
2022/06/15 12:42:12;;;;;;;4.17;3.42;;;22.20;81.90;;;;;;1831693;77;21101;-62
2022/06/15 12:44:44;;;;;;;3.25;2.30;;;22.30;82.10;;;;;;1832370;78;21058;-67
2022/06/15 12:47:21;;;;;;;7.35;3.10;;;22.50;81.50;;;;;;1832229;78;21425;-62
2022/06/15 12:50:06;;;;;;;6.97;4.33;;;22.60;81.50;;;;;;1832462;78;21121;-62
2022/06/15 12:52:44;;;;;;;2.58;2.17;;;22.70;81.70;;;;;;1832518;77;21042;-62
2022/06/15 12:55:43;;;;;;;6.30;2.50;;;22.80;81.10;;;;;;1832227;77;21112;-62
2022/06/15 12:58:34;;;;;;;3.42;2.33;;;23.00;80.90;;;;;;1788490;80;21131;-62
2022/06/15 13:01:09;;;;;;;5.87;2.83;;;23.30;81.10;;;;;;1787539;79;21077;-61
2022/06/15 13:03:57;;;;;;;3.65;2.65;;;23.40;81.20;;;;;;1788474;80;21518;-61
2022/06/15 13:06:29;;;;;;;2.90;2.22;;;23.70;81.40;;;;;;1788412;78;21073;-61
2022/06/15 13:09:20;;;;;;;3.47;2.65;;;23.90;81.90;;;;;;1788484;79;21676;-61
2022/06/15 13:11:55;;;;;;;3.30;2.60;;;24.10;82.30;;;;;;1788351;79;21085;-61
2022/06/15 13:14:28;;;;;;;3.45;3.15;;;24.30;81.90;;;;;;1838988;75;21239;-63
2022/06/15 13:17:08;;;;;;;2.42;2.22;;;24.50;81.80;;;;;;1827853;78;21412;-63
2022/06/15 13:19:40;;;;;;;3.15;2.45;;;24.70;81.30;;;;;;1841771;78;21199;-64
2022/06/15 13:22:12;;;;;;;3.42;2.75;;;24.80;81.30;;;;;;1840739;78;21050;-63
2022/06/15 13:25:06;;;;;;;5.97;2.70;;;24.80;81.80;;;;;;1841761;78;21105;-62
2022/06/15 13:27:38;;;;;;;7.42;2.72;;;24.90;81.70;;;;;;1841790;78;21050;-64
2022/06/15 13:30:22;;;;;;;5.33;4.15;;;25.10;81.80;;;;;;1841637;77;21496;-64
2022/06/15 13:32:57;;;;;;;3.80;3.00;;;25.30;81.50;;;;;;1842015;78;21042;-63
2022/06/15 13:35:29;;;;;;;8.18;4.30;;;25.40;81.10;;;;;;1841819;78;21058;-63
2022/06/15 13:38:04;;;;;;;3.20;2.87;;;25.60;81.20;;;;;;1841669;77;22011;-63
2022/06/15 13:40:56;;;;;;;4.30;3.50;;;25.80;81.00;;;;;;1841876;78;21545;-64
2022/06/15 13:43:34;;;;;;;5.22;3.58;;;25.80;80.70;;;;;;1841879;78;21062;-63
2022/06/15 13:46:06;;;;;;;3.45;3.12;;;26.00;80.60;;;;;;1841755;78;21477;-63
2022/06/15 13:48:43;;;;;;;3.15;2.65;;;26.10;80.00;;;;;;1839266;78;21132;-63